sensor_id;sensor_type;location;lat;lon;timestamp;pressure;altitude;pressure_sealevel;temperature;humidity
36190;BME280;22232;50.914;13.858;2023-03-15T00:00:52;97062.00;;;0.47;100.00
36190;BME280;22232;50.914;13.858;2023-03-15T00:03:22;97057.31;;;0.42;100.00
36190;BME280;22232;50.914;13.858;2023-03-15T00:05:52;97071.16;;;0.36;100.00
36190;BME280;22232;50.914;13.858;2023-03-15T00:08:20;97069.34;;;0.36;100.00
36190;BME280;22232;50.914;13.858;2023-03-15T00:10:48;97074.16;;;0.33;100.00
36190;BME280;22232;50.914;13.858;2023-03-15T00:13:16;97070.06;;;0.30;100.00
36190;BME280;22232;50.914;13.858;2023-03-15T00:15:49;97078.78;;;0.31;100.00
36190;BME280;22232;50.914;13.858;2023-03-15T00:18:18;97081.41;;;0.31;100.00
36190;BME280;22232;50.914;13.858;2023-03-15T00:20:47;97084.63;;;0.33;100.00
36190;BME280;22232;50.914;13.858;2023-03-15T00:23:15;97085.66;;;0.32;100.00
36190;BME280;22232;50.914;13.858;2023-03-15T00:25:43;97085.28;;;0.35;100.00
36190;BME280;22232;50.914;13.858;2023-03-15T00:28:12;97092.34;;;0.34;100.00
36190;BME280;22232;50.914;13.858;2023-03-15T00:30:40;97087.09;;;0.34;100.00
36190;BME280;22232;50.914;13.858;2023-03-15T00:33:10;97087.91;;;0.35;100.00
36190;BME280;22232;50.914;13.858;2023-03-15T00:35:42;97087.91;;;0.35;100.00
36190;BME280;22232;50.914;13.858;2023-03-15T00:38:10;97094.75;;;0.36;100.00
36190;BME280;22232;50.914;13.858;2023-03-15T00:40:41;97089.88;;;0.33;100.00
36190;BME280;22232;50.914;13.858;2023-03-15T00:43:08;97101.56;;;0.30;100.00
36190;BME280;22232;50.914;13.858;2023-03-15T00:45:36;97097.31;;;0.29;100.00
36190;BME280;22232;50.914;13.858;2023-03-15T00:48:04;97104.38;;;0.29;100.00
36190;BME280;22232;50.914;13.858;2023-03-15T00:50:31;97105.19;;;0.29;100.00
36190;BME280;22232;50.914;13.858;2023-03-15T00:52:59;97108.81;;;0.28;100.00
36190;BME280;22232;50.914;13.858;2023-03-15T00:55:28;97107.00;;;0.29;100.00
36190;BME280;22232;50.914;13.858;2023-03-15T00:57:55;97109.97;;;0.26;100.00
36190;BME280;22232;50.914;13.858;2023-03-15T01:00:23;97110.34;;;0.22;100.00
36190;BME280;22232;50.914;13.858;2023-03-15T01:02:52;97114.34;;;0.18;100.00
36190;BME280;22232;50.914;13.858;2023-03-15T01:05:20;97113.06;;;0.14;100.00
36190;BME280;22232;50.914;13.858;2023-03-15T01:07:48;97114.22;;;0.12;100.00
36190;BME280;22232;50.914;13.858;2023-03-15T01:10:16;97120.31;;;0.12;100.00
36190;BME280;22232;50.914;13.858;2023-03-15T01:12:44;97120.91;;;0.14;100.00
36190;BME280;22232;50.914;13.858;2023-03-15T01:15:13;97116.03;;;0.11;100.00
36190;BME280;22232;50.914;13.858;2023-03-15T01:17:43;97123.53;;;0.14;100.00
36190;BME280;22232;50.914;13.858;2023-03-15T01:20:12;97132.41;;;0.13;100.00
36190;BME280;22232;50.914;13.858;2023-03-15T01:22:41;97120.03;;;0.07;100.00
36190;BME280;22232;50.914;13.858;2023-03-15T01:25:09;97121.47;;;0.10;100.00
36190;BME280;22232;50.914;13.858;2023-03-15T01:27:37;97132.13;;;0.08;100.00
36190;BME280;22232;50.914;13.858;2023-03-15T01:30:05;97128.78;;;0.14;100.00
36190;BME280;22232;50.914;13.858;2023-03-15T01:32:33;97130.44;;;0.15;100.00
36190;BME280;22232;50.914;13.858;2023-03-15T01:35:01;97135.69;;;0.15;100.00
36190;BME280;22232;50.914;13.858;2023-03-15T01:37:28;97133.66;;;0.17;100.00
36190;BME280;22232;50.914;13.858;2023-03-15T01:39:58;97132.88;;;0.17;100.00
36190;BME280;22232;50.914;13.858;2023-03-15T01:42:26;97134.47;;;0.18;100.00
36190;BME280;22232;50.914;13.858;2023-03-15T01:47:21;97148.22;;;0.20;100.00
36190;BME280;22232;50.914;13.858;2023-03-15T01:50:05;97136.50;;;0.16;100.00
36190;BME280;22232;50.914;13.858;2023-03-15T01:52:36;97139.56;;;0.19;100.00
36190;BME280;22232;50.914;13.858;2023-03-15T01:55:12;97137.38;;;0.23;100.00
36190;BME280;22232;50.914;13.858;2023-03-15T01:57:56;97141.38;;;0.19;100.00
36190;BME280;22232;50.914;13.858;2023-03-15T02:00:28;97138.09;;;0.17;100.00
36190;BME280;22232;50.914;13.858;2023-03-15T02:03:10;97137.94;;;0.18;100.00
36190;BME280;22232;50.914;13.858;2023-03-15T02:05:47;97146.16;;;0.15;100.00
36190;BME280;22232;50.914;13.858;2023-03-15T02:08:30;97143.19;;;0.18;100.00
36190;BME280;22232;50.914;13.858;2023-03-15T02:11:03;97137.28;;;0.16;100.00
36190;BME280;22232;50.914;13.858;2023-03-15T02:13:33;97134.41;;;0.11;100.00
36190;BME280;22232;50.914;13.858;2023-03-15T02:16:07;97139.19;;;0.08;100.00
36190;BME280;22232;50.914;13.858;2023-03-15T02:18:44;97142.00;;;0.06;100.00
36190;BME280;22232;50.914;13.858;2023-03-15T02:21:26;97152.03;;;0.03;100.00
36190;BME280;22232;50.914;13.858;2023-03-15T02:27:02;97162.41;;;-0.04;100.00
36190;BME280;22232;50.914;13.858;2023-03-15T02:29:30;97161.69;;;-0.13;100.00
36190;BME280;22232;50.914;13.858;2023-03-15T02:31:59;97158.25;;;-0.13;100.00
36190;BME280;22232;50.914;13.858;2023-03-15T02:34:30;97158.44;;;-0.15;100.00
36190;BME280;22232;50.914;13.858;2023-03-15T02:36:58;97169.09;;;-0.16;100.00
36190;BME280;22232;50.914;13.858;2023-03-15T02:39:26;97175.34;;;-0.17;100.00
36190;BME280;22232;50.914;13.858;2023-03-15T02:41:58;97174.31;;;-0.16;100.00
36190;BME280;22232;50.914;13.858;2023-03-15T02:44:32;97182.03;;;-0.15;100.00
36190;BME280;22232;50.914;13.858;2023-03-15T02:47:04;97180.84;;;-0.12;100.00
36190;BME280;22232;50.914;13.858;2023-03-15T02:49:36;97183.28;;;-0.11;100.00
36190;BME280;22232;50.914;13.858;2023-03-15T02:52:07;97190.97;;;-0.09;100.00
36190;BME280;22232;50.914;13.858;2023-03-15T02:54:35;97191.31;;;-0.12;100.00
36190;BME280;22232;50.914;13.858;2023-03-15T02:57:03;97182.38;;;-0.18;100.00
36190;BME280;22232;50.914;13.858;2023-03-15T02:59:31;97190.06;;;-0.16;100.00
36190;BME280;22232;50.914;13.858;2023-03-15T03:01:58;97199.28;;;-0.20;100.00
36190;BME280;22232;50.914;13.858;2023-03-15T03:04:26;97196.81;;;-0.22;100.00
36190;BME280;22232;50.914;13.858;2023-03-15T03:06:54;97188.50;;;-0.26;100.00
36190;BME280;22232;50.914;13.858;2023-03-15T03:09:26;97192.13;;;-0.27;100.00
36190;BME280;22232;50.914;13.858;2023-03-15T03:11:57;97193.44;;;-0.31;100.00
36190;BME280;22232;50.914;13.858;2023-03-15T03:14:25;97200.50;;;-0.31;100.00
36190;BME280;22232;50.914;13.858;2023-03-15T03:16:52;97211.63;;;-0.29;100.00
36190;BME280;22232;50.914;13.858;2023-03-15T03:19:20;97216.69;;;-0.28;100.00
36190;BME280;22232;50.914;13.858;2023-03-15T03:21:53;97222.91;;;-0.29;100.00
36190;BME280;22232;50.914;13.858;2023-03-15T03:24:20;97235.38;;;-0.31;100.00
36190;BME280;22232;50.914;13.858;2023-03-15T03:26:48;97235.72;;;-0.34;100.00
36190;BME280;22232;50.914;13.858;2023-03-15T03:29:16;97248.00;;;-0.34;100.00
36190;BME280;22232;50.914;13.858;2023-03-15T03:31:46;97248.56;;;-0.39;100.00
36190;BME280;22232;50.914;13.858;2023-03-15T03:34:14;97241.03;;;-0.42;100.00
36190;BME280;22232;50.914;13.858;2023-03-15T03:36:42;97246.44;;;-0.43;100.00
36190;BME280;22232;50.914;13.858;2023-03-15T03:39:15;97247.09;;;-0.41;100.00
36190;BME280;22232;50.914;13.858;2023-03-15T03:41:44;97249.72;;;-0.41;100.00
36190;BME280;22232;50.914;13.858;2023-03-15T03:44:12;97255.97;;;-0.42;100.00
36190;BME280;22232;50.914;13.858;2023-03-15T03:46:41;97254.97;;;-0.41;100.00
36190;BME280;22232;50.914;13.858;2023-03-15T03:49:09;97258.72;;;-0.44;100.00
36190;BME280;22232;50.914;13.858;2023-03-15T03:51:36;97269.75;;;-0.49;100.00
36190;BME280;22232;50.914;13.858;2023-03-15T03:54:04;97263.56;;;-0.56;100.00
36190;BME280;22232;50.914;13.858;2023-03-15T03:56:31;97258.66;;;-0.59;100.00
36190;BME280;22232;50.914;13.858;2023-03-15T03:58:59;97272.09;;;-0.62;100.00
36190;BME280;22232;50.914;13.858;2023-03-15T04:01:42;97262.31;;;-0.68;100.00
36190;BME280;22232;50.914;13.858;2023-03-15T04:04:11;97261.66;;;-0.70;100.00
36190;BME280;22232;50.914;13.858;2023-03-15T04:06:41;97262.66;;;-0.71;100.00
36190;BME280;22232;50.914;13.858;2023-03-15T04:09:15;97264.13;;;-0.68;100.00
36190;BME280;22232;50.914;13.858;2023-03-15T04:11:45;97266.91;;;-0.70;100.00
36190;BME280;22232;50.914;13.858;2023-03-15T04:14:15;97267.75;;;-0.70;100.00
36190;BME280;22232;50.914;13.858;2023-03-15T04:16:44;97271.19;;;-0.69;100.00
36190;BME280;22232;50.914;13.858;2023-03-15T04:19:15;97279.84;;;-0.68;100.00
36190;BME280;22232;50.914;13.858;2023-03-15T04:21:43;97284.44;;;-0.71;100.00
36190;BME280;22232;50.914;13.858;2023-03-15T04:24:20;97286.25;;;-0.71;100.00
36190;BME280;22232;50.914;13.858;2023-03-15T04:27:07;97295.91;;;-0.72;100.00
36190;BME280;22232;50.914;13.858;2023-03-15T04:29:53;97307.53;;;-0.74;100.00
36190;BME280;22232;50.914;13.858;2023-03-15T04:32:39;97298.22;;;-0.77;100.00
36190;BME280;22232;50.914;13.858;2023-03-15T04:35:38;97311.31;;;-0.77;100.00
36190;BME280;22232;50.914;13.858;2023-03-15T04:38:20;97317.69;;;-0.79;100.00
36190;BME280;22232;50.914;13.858;2023-03-15T04:41:07;97327.69;;;-0.83;100.00
36190;BME280;22232;50.914;13.858;2023-03-15T04:44:04;97341.78;;;-0.84;100.00
36190;BME280;22232;50.914;13.858;2023-03-15T04:46:55;97335.88;;;-0.86;100.00
36190;BME280;22232;50.914;13.858;2023-03-15T04:49:49;97340.31;;;-0.86;100.00
36190;BME280;22232;50.914;13.858;2023-03-15T04:52:37;97351.44;;;-0.84;100.00
36190;BME280;22232;50.914;13.858;2023-03-15T04:55:08;97350.44;;;-0.83;100.00
36190;BME280;22232;50.914;13.858;2023-03-15T04:57:54;97364.06;;;-0.88;100.00
36190;BME280;22232;50.914;13.858;2023-03-15T05:00:41;97359.78;;;-0.89;100.00
36190;BME280;22232;50.914;13.858;2023-03-15T05:03:25;97372.25;;;-0.91;100.00
36190;BME280;22232;50.914;13.858;2023-03-15T05:06:07;97369.31;;;-0.88;100.00
36190;BME280;22232;50.914;13.858;2023-03-15T05:09:02;97370.59;;;-0.92;100.00
36190;BME280;22232;50.914;13.858;2023-03-15T05:11:39;97374.88;;;-0.91;100.00
36190;BME280;22232;50.914;13.858;2023-03-15T05:14:30;97379.25;;;-0.92;100.00
36190;BME280;22232;50.914;13.858;2023-03-15T05:17:17;97375.03;;;-0.93;100.00
36190;BME280;22232;50.914;13.858;2023-03-15T05:20:07;97391.38;;;-0.90;100.00
36190;BME280;22232;50.914;13.858;2023-03-15T05:22:55;97382.53;;;-0.89;100.00
36190;BME280;22232;50.914;13.858;2023-03-15T05:25:41;97390.41;;;-0.89;100.00
36190;BME280;22232;50.914;13.858;2023-03-15T05:28:29;97389.59;;;-0.90;100.00
36190;BME280;22232;50.914;13.858;2023-03-15T05:31:16;97390.56;;;-0.91;100.00
36190;BME280;22232;50.914;13.858;2023-03-15T05:34:19;97398.56;;;-0.84;100.00
36190;BME280;22232;50.914;13.858;2023-03-15T05:37:09;97394.28;;;-0.77;100.00
36190;BME280;22232;50.914;13.858;2023-03-15T05:39:57;97405.88;;;-0.72;100.00
36190;BME280;22232;50.914;13.858;2023-03-15T05:42:45;97410.09;;;-0.62;100.00
36190;BME280;22232;50.914;13.858;2023-03-15T05:45:48;97415.94;;;-0.52;100.00
36190;BME280;22232;50.914;13.858;2023-03-15T05:48:42;97415.56;;;-0.33;100.00
36190;BME280;22232;50.914;13.858;2023-03-15T05:51:28;97411.28;;;0.20;100.00
36190;BME280;22232;50.914;13.858;2023-03-15T05:54:16;97407.84;;;0.81;100.00
36190;BME280;22232;50.914;13.858;2023-03-15T05:57:02;97427.38;;;1.31;100.00
36190;BME280;22232;50.914;13.858;2023-03-15T05:59:38;97423.31;;;1.28;100.00
36190;BME280;22232;50.914;13.858;2023-03-15T06:02:20;97422.13;;;1.16;100.00
36190;BME280;22232;50.914;13.858;2023-03-15T06:05:07;97435.16;;;0.95;100.00
36190;BME280;22232;50.914;13.858;2023-03-15T06:07:35;97428.81;;;1.04;100.00
36190;BME280;22232;50.914;13.858;2023-03-15T06:10:04;97448.13;;;1.55;100.00
36190;BME280;22232;50.914;13.858;2023-03-15T06:12:32;97454.06;;;1.79;100.00
36190;BME280;22232;50.914;13.858;2023-03-15T06:15:00;97456.25;;;2.48;100.00
36190;BME280;22232;50.914;13.858;2023-03-15T06:17:28;97452.34;;;3.43;100.00
36190;BME280;22232;50.914;13.858;2023-03-15T06:19:55;97461.25;;;3.83;100.00
36190;BME280;22232;50.914;13.858;2023-03-15T06:22:23;97464.09;;;4.36;100.00
36190;BME280;22232;50.914;13.858;2023-03-15T06:24:57;97457.66;;;4.72;100.00
36190;BME280;22232;50.914;13.858;2023-03-15T06:27:34;97460.53;;;4.91;100.00
36190;BME280;22232;50.914;13.858;2023-03-15T06:30:04;97460.47;;;5.44;100.00
36190;BME280;22232;50.914;13.858;2023-03-15T06:32:32;97470.38;;;5.75;100.00
36190;BME280;22232;50.914;13.858;2023-03-15T06:34:59;97471.72;;;6.11;100.00
36190;BME280;22232;50.914;13.858;2023-03-15T06:37:27;97477.63;;;6.51;100.00
36190;BME280;22232;50.914;13.858;2023-03-15T06:40:03;97484.38;;;6.47;100.00
36190;BME280;22232;50.914;13.858;2023-03-15T06:42:35;97491.41;;;6.66;100.00
36190;BME280;22232;50.914;13.858;2023-03-15T06:45:04;97484.44;;;7.04;100.00
36190;BME280;22232;50.914;13.858;2023-03-15T06:47:31;97488.88;;;7.10;100.00
36190;BME280;22232;50.914;13.858;2023-03-15T06:49:59;97496.28;;;7.26;100.00
36190;BME280;22232;50.914;13.858;2023-03-15T06:52:27;97487.72;;;7.49;100.00
36190;BME280;22232;50.914;13.858;2023-03-15T06:54:54;97484.34;;;7.35;95.60
36190;BME280;22232;50.914;13.858;2023-03-15T06:57:22;97493.28;;;7.41;97.40
36190;BME280;22232;50.914;13.858;2023-03-15T06:59:50;97494.63;;;7.50;96.99
36190;BME280;22232;50.914;13.858;2023-03-15T07:02:17;97497.16;;;7.64;97.02
36190;BME280;22232;50.914;13.858;2023-03-15T07:04:46;97493.72;;;7.38;94.02
36190;BME280;22232;50.914;13.858;2023-03-15T07:07:14;97501.41;;;7.46;97.42
36190;BME280;22232;50.914;13.858;2023-03-15T07:09:42;97504.00;;;7.53;95.47
36190;BME280;22232;50.914;13.858;2023-03-15T07:12:09;97500.06;;;7.80;94.04
36190;BME280;22232;50.914;13.858;2023-03-15T07:14:38;97505.09;;;7.89;89.83
36190;BME280;22232;50.914;13.858;2023-03-15T07:17:05;97498.50;;;7.04;94.14
36190;BME280;22232;50.914;13.858;2023-03-15T07:19:32;97499.47;;;7.35;96.75
36190;BME280;22232;50.914;13.858;2023-03-15T07:22:03;97502.81;;;7.49;100.00
36190;BME280;22232;50.914;13.858;2023-03-15T07:24:30;97503.44;;;7.69;97.77
36190;BME280;22232;50.914;13.858;2023-03-15T07:26:58;97501.63;;;7.88;89.04
36190;BME280;22232;50.914;13.858;2023-03-15T07:29:25;97507.38;;;8.03;94.47
36190;BME280;22232;50.914;13.858;2023-03-15T07:31:53;97509.28;;;7.96;94.73
36190;BME280;22232;50.914;13.858;2023-03-15T07:34:20;97514.44;;;8.28;97.44
36190;BME280;22232;50.914;13.858;2023-03-15T07:36:48;97507.19;;;8.35;92.25
36190;BME280;22232;50.914;13.858;2023-03-15T07:39:15;97510.53;;;8.12;93.23
36190;BME280;22232;50.914;13.858;2023-03-15T07:41:43;97517.56;;;8.25;85.75
36190;BME280;22232;50.914;13.858;2023-03-15T07:44:21;97517.47;;;8.32;88.98
36190;BME280;22232;50.914;13.858;2023-03-15T07:46:49;97521.16;;;8.49;87.73
36190;BME280;22232;50.914;13.858;2023-03-15T07:49:17;97519.63;;;8.41;92.56
36190;BME280;22232;50.914;13.858;2023-03-15T07:51:44;97529.28;;;8.84;86.97
36190;BME280;22232;50.914;13.858;2023-03-15T07:54:12;97525.00;;;8.83;87.05
36190;BME280;22232;50.914;13.858;2023-03-15T07:56:39;97533.41;;;9.10;80.72
36190;BME280;22232;50.914;13.858;2023-03-15T07:59:07;97527.25;;;8.98;84.16
36190;BME280;22232;50.914;13.858;2023-03-15T08:01:36;97531.69;;;8.74;79.38
36190;BME280;22232;50.914;13.858;2023-03-15T08:04:03;97528.63;;;8.59;81.50
36190;BME280;22232;50.914;13.858;2023-03-15T08:06:31;97534.75;;;8.41;83.43
36190;BME280;22232;50.914;13.858;2023-03-15T08:08:58;97533.69;;;8.05;84.39
36190;BME280;22232;50.914;13.858;2023-03-15T08:11:27;97533.88;;;8.77;84.59
36190;BME280;22232;50.914;13.858;2023-03-15T08:13:55;97527.56;;;8.90;88.21
36190;BME280;22232;50.914;13.858;2023-03-15T08:16:22;97533.50;;;8.43;87.28
36190;BME280;22232;50.914;13.858;2023-03-15T08:18:50;97540.63;;;8.06;84.46
36190;BME280;22232;50.914;13.858;2023-03-15T08:21:17;97543.84;;;7.71;85.15
36190;BME280;22232;50.914;13.858;2023-03-15T08:23:45;97539.06;;;7.80;88.79
36190;BME280;22232;50.914;13.858;2023-03-15T08:26:12;97543.88;;;7.90;87.93
36190;BME280;22232;50.914;13.858;2023-03-15T08:28:40;97550.31;;;8.00;96.88
36190;BME280;22232;50.914;13.858;2023-03-15T08:31:08;97544.28;;;7.18;88.63
36190;BME280;22232;50.914;13.858;2023-03-15T08:33:36;97553.81;;;7.26;91.29
36190;BME280;22232;50.914;13.858;2023-03-15T08:36:03;97548.31;;;7.52;92.76
36190;BME280;22232;50.914;13.858;2023-03-15T08:38:31;97546.66;;;7.76;89.50
36190;BME280;22232;50.914;13.858;2023-03-15T08:40:59;97561.53;;;8.21;89.69
36190;BME280;22232;50.914;13.858;2023-03-15T08:43:26;97558.31;;;8.56;90.77
36190;BME280;22232;50.914;13.858;2023-03-15T08:45:54;97553.91;;;8.24;85.46
36190;BME280;22232;50.914;13.858;2023-03-15T08:48:29;97559.91;;;8.01;86.86
36190;BME280;22232;50.914;13.858;2023-03-15T08:51:02;97552.69;;;7.65;92.12
36190;BME280;22232;50.914;13.858;2023-03-15T08:53:30;97553.94;;;7.63;91.91
36190;BME280;22232;50.914;13.858;2023-03-15T08:55:59;97551.06;;;8.08;97.54
36190;BME280;22232;50.914;13.858;2023-03-15T08:58:26;97545.22;;;8.84;94.39
36190;BME280;22232;50.914;13.858;2023-03-15T09:00:54;97554.31;;;9.07;86.55
36190;BME280;22232;50.914;13.858;2023-03-15T09:03:22;97560.06;;;8.62;73.57
36190;BME280;22232;50.914;13.858;2023-03-15T09:05:55;97559.75;;;8.15;76.80
36190;BME280;22232;50.914;13.858;2023-03-15T09:08:22;97571.16;;;7.97;82.34
36190;BME280;22232;50.914;13.858;2023-03-15T09:10:57;97576.72;;;7.45;84.53
36190;BME280;22232;50.914;13.858;2023-03-15T09:13:25;97589.84;;;6.70;84.30
36190;BME280;22232;50.914;13.858;2023-03-15T09:15:54;97592.91;;;5.89;100.00
36190;BME280;22232;50.914;13.858;2023-03-15T09:18:22;97608.59;;;5.37;100.00
36190;BME280;22232;50.914;13.858;2023-03-15T09:20:50;97611.78;;;4.99;100.00
36190;BME280;22232;50.914;13.858;2023-03-15T09:23:18;97615.00;;;4.81;100.00
36190;BME280;22232;50.914;13.858;2023-03-15T09:25:45;97616.97;;;4.66;100.00
36190;BME280;22232;50.914;13.858;2023-03-15T09:28:13;97617.63;;;4.33;100.00
36190;BME280;22232;50.914;13.858;2023-03-15T09:30:40;97625.50;;;4.20;100.00
36190;BME280;22232;50.914;13.858;2023-03-15T09:33:08;97629.69;;;4.08;100.00
36190;BME280;22232;50.914;13.858;2023-03-15T09:35:36;97628.38;;;3.97;100.00
36190;BME280;22232;50.914;13.858;2023-03-15T09:38:03;97624.50;;;3.93;100.00
36190;BME280;22232;50.914;13.858;2023-03-15T09:40:33;97630.47;;;4.02;100.00
36190;BME280;22232;50.914;13.858;2023-03-15T09:45:47;97635.13;;;4.06;100.00
36190;BME280;22232;50.914;13.858;2023-03-15T09:48:24;97636.75;;;4.35;100.00
36190;BME280;22232;50.914;13.858;2023-03-15T09:50:59;97633.78;;;4.58;100.00
36190;BME280;22232;50.914;13.858;2023-03-15T09:53:37;97636.91;;;4.69;100.00
36190;BME280;22232;50.914;13.858;2023-03-15T09:56:27;97640.75;;;4.66;100.00
36190;BME280;22232;50.914;13.858;2023-03-15T09:58:59;97647.88;;;4.72;100.00
36190;BME280;22232;50.914;13.858;2023-03-15T10:01:34;97632.69;;;4.81;100.00
36190;BME280;22232;50.914;13.858;2023-03-15T10:04:24;97644.63;;;4.77;100.00
36190;BME280;22232;50.914;13.858;2023-03-15T10:06:56;97641.41;;;4.75;100.00
36190;BME280;22232;50.914;13.858;2023-03-15T10:09:27;97651.31;;;4.66;100.00
36190;BME280;22232;50.914;13.858;2023-03-15T10:20:05;97656.75;;;4.58;100.00
36190;BME280;22232;50.914;13.858;2023-03-15T10:25:24;97648.56;;;4.88;100.00
36190;BME280;22232;50.914;13.858;2023-03-15T10:28:12;97654.47;;;4.96;100.00
36190;BME280;22232;50.914;13.858;2023-03-15T10:30:49;97656.38;;;5.22;100.00
36190;BME280;22232;50.914;13.858;2023-03-15T10:33:37;97643.53;;;5.13;100.00
36190;BME280;22232;50.914;13.858;2023-03-15T10:38:42;97648.69;;;4.73;100.00
36190;BME280;22232;50.914;13.858;2023-03-15T10:41:11;97650.13;;;4.75;100.00
36190;BME280;22232;50.914;13.858;2023-03-15T10:44:02;97644.78;;;4.62;100.00
36190;BME280;22232;50.914;13.858;2023-03-15T10:46:30;97651.13;;;4.74;100.00
36190;BME280;22232;50.914;13.858;2023-03-15T10:49:09;97653.63;;;4.96;100.00
36190;BME280;22232;50.914;13.858;2023-03-15T10:51:41;97658.47;;;4.79;100.00
36190;BME280;22232;50.914;13.858;2023-03-15T10:56:50;97659.94;;;4.88;100.00
36190;BME280;22232;50.914;13.858;2023-03-15T10:59:26;97659.97;;;4.53;100.00
36190;BME280;22232;50.914;13.858;2023-03-15T11:02:17;97659.88;;;4.33;100.00
36190;BME280;22232;50.914;13.858;2023-03-15T11:04:49;97661.78;;;4.11;100.00
36190;BME280;22232;50.914;13.858;2023-03-15T11:07:17;97671.25;;;3.99;100.00
36190;BME280;22232;50.914;13.858;2023-03-15T11:09:51;97671.50;;;3.83;100.00
36190;BME280;22232;50.914;13.858;2023-03-15T11:12:22;97666.75;;;3.72;100.00
36190;BME280;22232;50.914;13.858;2023-03-15T11:15:00;97666.84;;;3.57;100.00
36190;BME280;22232;50.914;13.858;2023-03-15T11:17:34;97674.69;;;3.50;100.00
36190;BME280;22232;50.914;13.858;2023-03-15T11:20:35;97676.00;;;3.61;100.00
36190;BME280;22232;50.914;13.858;2023-03-15T11:23:24;97672.94;;;3.36;100.00
36190;BME280;22232;50.914;13.858;2023-03-15T11:25:53;97676.34;;;3.15;100.00
36190;BME280;22232;50.914;13.858;2023-03-15T11:28:27;97680.09;;;3.06;100.00
36190;BME280;22232;50.914;13.858;2023-03-15T11:30:57;97682.75;;;3.06;100.00
36190;BME280;22232;50.914;13.858;2023-03-15T11:33:42;97679.66;;;3.02;100.00
36190;BME280;22232;50.914;13.858;2023-03-15T11:36:16;97669.22;;;3.30;100.00
36190;BME280;22232;50.914;13.858;2023-03-15T11:38:44;97669.69;;;3.62;100.00
36190;BME280;22232;50.914;13.858;2023-03-15T11:41:26;97668.81;;;3.76;100.00
36190;BME280;22232;50.914;13.858;2023-03-15T11:44:13;97662.44;;;3.92;100.00
36190;BME280;22232;50.914;13.858;2023-03-15T11:47:22;97671.34;;;4.19;100.00
36190;BME280;22232;50.914;13.858;2023-03-15T11:49:56;97671.75;;;4.16;100.00
36190;BME280;22232;50.914;13.858;2023-03-15T11:52:26;97669.88;;;3.82;100.00
36190;BME280;22232;50.914;13.858;2023-03-15T11:55:00;97668.44;;;3.79;100.00
36190;BME280;22232;50.914;13.858;2023-03-15T11:57:41;97662.00;;;3.60;100.00
36190;BME280;22232;50.914;13.858;2023-03-15T12:02:49;97676.97;;;3.81;100.00
36190;BME280;22232;50.914;13.858;2023-03-15T12:05:52;97670.66;;;4.04;100.00
36190;BME280;22232;50.914;13.858;2023-03-15T12:08:52;97668.13;;;4.17;100.00
36190;BME280;22232;50.914;13.858;2023-03-15T12:16:28;97665.41;;;4.39;100.00
36190;BME280;22232;50.914;13.858;2023-03-15T12:18:57;97661.69;;;4.26;100.00
36190;BME280;22232;50.914;13.858;2023-03-15T12:21:51;97663.94;;;4.29;100.00
36190;BME280;22232;50.914;13.858;2023-03-15T12:24:29;97666.00;;;4.06;100.00
36190;BME280;22232;50.914;13.858;2023-03-15T12:27:13;97670.34;;;3.92;100.00
36190;BME280;22232;50.914;13.858;2023-03-15T12:29:43;97666.78;;;4.00;100.00
36190;BME280;22232;50.914;13.858;2023-03-15T12:32:16;97664.38;;;4.05;100.00
36190;BME280;22232;50.914;13.858;2023-03-15T12:34:57;97666.72;;;4.21;100.00
36190;BME280;22232;50.914;13.858;2023-03-15T12:37:45;97669.03;;;4.37;100.00
36190;BME280;22232;50.914;13.858;2023-03-15T12:58:52;97683.72;;;5.76;100.00
36190;BME280;22232;50.914;13.858;2023-03-15T13:01:21;97677.00;;;5.73;100.00
36190;BME280;22232;50.914;13.858;2023-03-15T13:03:56;97685.94;;;5.52;100.00
36190;BME280;22232;50.914;13.858;2023-03-15T13:11:51;97703.66;;;4.56;100.00
36190;BME280;22232;50.914;13.858;2023-03-15T13:14:35;97701.06;;;4.00;100.00
36190;BME280;22232;50.914;13.858;2023-03-15T13:20:17;97708.06;;;3.86;100.00
36190;BME280;22232;50.914;13.858;2023-03-15T13:30:52;97695.75;;;4.21;100.00
36190;BME280;22232;50.914;13.858;2023-03-15T13:33:23;97699.03;;;4.23;100.00
36190;BME280;22232;50.914;13.858;2023-03-15T13:38:38;97696.28;;;4.10;100.00
36190;BME280;22232;50.914;13.858;2023-03-15T13:41:27;97695.22;;;4.04;100.00
36190;BME280;22232;50.914;13.858;2023-03-15T13:43:57;97702.84;;;4.21;100.00
36190;BME280;22232;50.914;13.858;2023-03-15T13:46:27;97708.19;;;4.27;100.00
36190;BME280;22232;50.914;13.858;2023-03-15T13:48:56;97701.91;;;4.35;100.00
36190;BME280;22232;50.914;13.858;2023-03-15T13:51:29;97709.66;;;4.36;100.00
36190;BME280;22232;50.914;13.858;2023-03-15T13:54:05;97706.94;;;4.23;100.00
36190;BME280;22232;50.914;13.858;2023-03-15T13:57:01;97713.97;;;4.16;100.00
36190;BME280;22232;50.914;13.858;2023-03-15T13:59:34;97716.44;;;4.18;100.00
36190;BME280;22232;50.914;13.858;2023-03-15T14:02:17;97711.75;;;4.20;100.00
36190;BME280;22232;50.914;13.858;2023-03-15T14:04:52;97702.81;;;4.14;100.00
36190;BME280;22232;50.914;13.858;2023-03-15T14:07:27;97704.91;;;4.25;100.00
36190;BME280;22232;50.914;13.858;2023-03-15T14:10:24;97700.69;;;4.31;100.00
36190;BME280;22232;50.914;13.858;2023-03-15T14:12:53;97708.56;;;4.24;100.00
36190;BME280;22232;50.914;13.858;2023-03-15T14:15:41;97711.25;;;4.31;100.00
36190;BME280;22232;50.914;13.858;2023-03-15T14:18:31;97709.13;;;4.48;100.00
36190;BME280;22232;50.914;13.858;2023-03-15T14:23:38;97706.56;;;4.61;100.00
36190;BME280;22232;50.914;13.858;2023-03-15T14:26:22;97716.97;;;4.69;100.00
36190;BME280;22232;50.914;13.858;2023-03-15T14:28:56;97711.50;;;4.77;100.00
36190;BME280;22232;50.914;13.858;2023-03-15T14:31:29;97705.00;;;4.80;100.00
36190;BME280;22232;50.914;13.858;2023-03-15T14:34:14;97707.91;;;4.85;100.00
36190;BME280;22232;50.914;13.858;2023-03-15T14:36:44;97715.56;;;4.73;100.00